sensor_id;sensor_type;location;lat;lon;timestamp;P1;durP1;ratioP1;P2;durP2;ratioP2
67164;SDS011;54093;50.014;19.984;2022-11-12T00:04:02;28.83;;;14.98;;
67164;SDS011;54093;50.014;19.984;2022-11-12T00:13:22;44.50;;;22.20;;
67164;SDS011;54093;50.014;19.984;2022-11-12T00:22:43;26.83;;;15.88;;
67164;SDS011;54093;50.014;19.984;2022-11-12T00:32:04;30.13;;;15.30;;
67164;SDS011;54093;50.014;19.984;2022-11-12T00:41:26;32.08;;;16.25;;
67164;SDS011;54093;50.014;19.984;2022-11-12T00:50:46;36.10;;;16.17;;
67164;SDS011;54093;50.014;19.984;2022-11-12T01:00:13;24.92;;;15.70;;
67164;SDS011;54093;50.014;19.984;2022-11-12T01:09:36;30.67;;;16.08;;
67164;SDS011;54093;50.014;19.984;2022-11-12T01:18:58;31.15;;;16.75;;
67164;SDS011;54093;50.014;19.984;2022-11-12T01:28:20;36.45;;;15.38;;
67164;SDS011;54093;50.014;19.984;2022-11-12T01:37:41;27.48;;;13.77;;
67164;SDS011;54093;50.014;19.984;2022-11-12T01:47:21;28.33;;;14.75;;
67164;SDS011;54093;50.014;19.984;2022-11-12T01:56:44;26.17;;;14.15;;
67164;SDS011;54093;50.014;19.984;2022-11-12T02:06:07;27.95;;;14.63;;
67164;SDS011;54093;50.014;19.984;2022-11-12T02:15:30;31.67;;;16.08;;
67164;SDS011;54093;50.014;19.984;2022-11-12T02:24:52;27.27;;;14.25;;
67164;SDS011;54093;50.014;19.984;2022-11-12T02:34:12;24.92;;;12.73;;
67164;SDS011;54093;50.014;19.984;2022-11-12T02:43:33;22.17;;;13.77;;
67164;SDS011;54093;50.014;19.984;2022-11-12T02:52:54;24.90;;;13.38;;
67164;SDS011;54093;50.014;19.984;2022-11-12T03:02:15;25.23;;;13.32;;
67164;SDS011;54093;50.014;19.984;2022-11-12T03:11:36;17.05;;;12.40;;
67164;SDS011;54093;50.014;19.984;2022-11-12T03:20:56;20.52;;;13.60;;
67164;SDS011;54093;50.014;19.984;2022-11-12T03:30:17;23.35;;;12.88;;
67164;SDS011;54093;50.014;19.984;2022-11-12T03:39:38;25.70;;;12.15;;
67164;SDS011;54093;50.014;19.984;2022-11-12T03:48:59;29.67;;;13.50;;
67164;SDS011;54093;50.014;19.984;2022-11-12T03:58:22;15.27;;;11.45;;
67164;SDS011;54093;50.014;19.984;2022-11-12T04:07:42;26.60;;;14.02;;
67164;SDS011;54093;50.014;19.984;2022-11-12T04:17:22;29.15;;;13.85;;
67164;SDS011;54093;50.014;19.984;2022-11-12T04:27:01;26.48;;;13.00;;
67164;SDS011;54093;50.014;19.984;2022-11-12T04:36:22;22.35;;;12.98;;
67164;SDS011;54093;50.014;19.984;2022-11-12T04:45:43;21.05;;;13.25;;
67164;SDS011;54093;50.014;19.984;2022-11-12T04:55:07;27.90;;;12.95;;
67164;SDS011;54093;50.014;19.984;2022-11-12T05:04:28;34.25;;;14.00;;
67164;SDS011;54093;50.014;19.984;2022-11-12T05:13:49;14.40;;;12.40;;
67164;SDS011;54093;50.014;19.984;2022-11-12T05:23:10;23.48;;;12.27;;
67164;SDS011;54093;50.014;19.984;2022-11-12T05:32:31;23.10;;;12.20;;
67164;SDS011;54093;50.014;19.984;2022-11-12T05:41:52;27.70;;;13.23;;
67164;SDS011;54093;50.014;19.984;2022-11-12T05:51:12;23.45;;;12.73;;
67164;SDS011;54093;50.014;19.984;2022-11-12T06:00:34;29.38;;;15.13;;
67164;SDS011;54093;50.014;19.984;2022-11-12T06:09:58;23.35;;;14.90;;
67164;SDS011;54093;50.014;19.984;2022-11-12T06:19:19;24.60;;;12.38;;
67164;SDS011;54093;50.014;19.984;2022-11-12T06:28:40;31.70;;;15.02;;
67164;SDS011;54093;50.014;19.984;2022-11-12T06:38:01;23.17;;;13.05;;
67164;SDS011;54093;50.014;19.984;2022-11-12T06:47:21;23.38;;;13.63;;
67164;SDS011;54093;50.014;19.984;2022-11-12T06:56:42;32.80;;;14.73;;
67164;SDS011;54093;50.014;19.984;2022-11-12T07:06:04;21.73;;;12.70;;
67164;SDS011;54093;50.014;19.984;2022-11-12T07:15:26;29.55;;;13.48;;
67164;SDS011;54093;50.014;19.984;2022-11-12T07:24:47;26.98;;;14.10;;
67164;SDS011;54093;50.014;19.984;2022-11-12T07:34:08;21.42;;;13.68;;
67164;SDS011;54093;50.014;19.984;2022-11-12T07:43:29;21.52;;;12.60;;
67164;SDS011;54093;50.014;19.984;2022-11-12T07:52:51;22.35;;;13.13;;
67164;SDS011;54093;50.014;19.984;2022-11-12T08:02:12;21.58;;;11.15;;
67164;SDS011;54093;50.014;19.984;2022-11-12T08:11:33;23.15;;;12.10;;
67164;SDS011;54093;50.014;19.984;2022-11-12T08:21:04;17.35;;;11.32;;
67164;SDS011;54093;50.014;19.984;2022-11-12T08:30:28;19.88;;;12.38;;
67164;SDS011;54093;50.014;19.984;2022-11-12T08:39:49;15.23;;;11.85;;
67164;SDS011;54093;50.014;19.984;2022-11-12T08:49:10;25.85;;;13.80;;
67164;SDS011;54093;50.014;19.984;2022-11-12T08:58:31;9.70;;;8.05;;
67164;SDS011;54093;50.014;19.984;2022-11-12T09:07:55;12.90;;;8.27;;
67164;SDS011;54093;50.014;19.984;2022-11-12T09:17:20;16.42;;;8.93;;
67164;SDS011;54093;50.014;19.984;2022-11-12T09:26:41;17.80;;;8.88;;
67164;SDS011;54093;50.014;19.984;2022-11-12T09:36:02;12.32;;;8.25;;
67164;SDS011;54093;50.014;19.984;2022-11-12T09:45:25;13.13;;;8.57;;
67164;SDS011;54093;50.014;19.984;2022-11-12T09:54:50;13.40;;;8.27;;
67164;SDS011;54093;50.014;19.984;2022-11-12T10:04:23;15.20;;;9.13;;
67164;SDS011;54093;50.014;19.984;2022-11-12T10:23:45;12.43;;;8.50;;
67164;SDS011;54093;50.014;19.984;2022-11-12T10:33:11;11.20;;;8.25;;
67164;SDS011;54093;50.014;19.984;2022-11-12T10:42:33;12.93;;;8.82;;
67164;SDS011;54093;50.014;19.984;2022-11-12T10:51:55;11.93;;;5.93;;
67164;SDS011;54093;50.014;19.984;2022-11-12T11:01:18;6.15;;;5.13;;
67164;SDS011;54093;50.014;19.984;2022-11-12T11:10:39;10.15;;;4.85;;
67164;SDS011;54093;50.014;19.984;2022-11-12T11:20:00;5.38;;;4.88;;
67164;SDS011;54093;50.014;19.984;2022-11-12T11:39:20;8.93;;;5.80;;
67164;SDS011;54093;50.014;19.984;2022-11-12T11:49:12;8.85;;;6.38;;
67164;SDS011;54093;50.014;19.984;2022-11-12T12:18:18;6.28;;;4.45;;
67164;SDS011;54093;50.014;19.984;2022-11-12T12:27:52;4.67;;;3.70;;
67164;SDS011;54093;50.014;19.984;2022-11-12T12:37:21;4.65;;;4.28;;
67164;SDS011;54093;50.014;19.984;2022-11-12T12:46:55;7.82;;;4.70;;
67164;SDS011;54093;50.014;19.984;2022-11-12T13:05:42;7.68;;;5.18;;
67164;SDS011;54093;50.014;19.984;2022-11-12T13:15:07;5.63;;;5.07;;
67164;SDS011;54093;50.014;19.984;2022-11-12T13:34:30;8.70;;;6.47;;
67164;SDS011;54093;50.014;19.984;2022-11-12T13:43:52;6.07;;;5.47;;
67164;SDS011;54093;50.014;19.984;2022-11-12T13:53:17;8.48;;;5.45;;
67164;SDS011;54093;50.014;19.984;2022-11-12T14:02:43;8.13;;;4.82;;
67164;SDS011;54093;50.014;19.984;2022-11-12T14:12:27;14.73;;;4.73;;
67164;SDS011;54093;50.014;19.984;2022-11-12T14:22:18;8.00;;;4.55;;
67164;SDS011;54093;50.014;19.984;2022-11-12T14:31:40;8.80;;;4.63;;
67164;SDS011;54093;50.014;19.984;2022-11-12T14:50:49;4.32;;;4.03;;
67164;SDS011;54093;50.014;19.984;2022-11-12T15:00:37;7.43;;;5.95;;
67164;SDS011;54093;50.014;19.984;2022-11-12T15:09:59;8.75;;;4.43;;
67164;SDS011;54093;50.014;19.984;2022-11-12T15:19:26;5.88;;;4.88;;
67164;SDS011;54093;50.014;19.984;2022-11-12T15:38:31;9.45;;;5.65;;
67164;SDS011;54093;50.014;19.984;2022-11-12T15:47:57;8.38;;;5.53;;
67164;SDS011;54093;50.014;19.984;2022-11-12T15:57:21;5.82;;;4.65;;
67164;SDS011;54093;50.014;19.984;2022-11-12T16:06:44;8.48;;;5.60;;
67164;SDS011;54093;50.014;19.984;2022-11-12T16:16:05;8.57;;;5.53;;
67164;SDS011;54093;50.014;19.984;2022-11-12T16:25:28;5.57;;;4.70;;
67164;SDS011;54093;50.014;19.984;2022-11-12T16:34:51;8.20;;;6.93;;
67164;SDS011;54093;50.014;19.984;2022-11-12T16:44:12;17.25;;;9.07;;
67164;SDS011;54093;50.014;19.984;2022-11-12T16:53:32;8.70;;;6.05;;
67164;SDS011;54093;50.014;19.984;2022-11-12T17:02:53;8.75;;;6.25;;
67164;SDS011;54093;50.014;19.984;2022-11-12T17:12:14;10.80;;;6.53;;
67164;SDS011;54093;50.014;19.984;2022-11-12T17:21:35;8.95;;;6.82;;
67164;SDS011;54093;50.014;19.984;2022-11-12T17:40:32;10.93;;;6.93;;
67164;SDS011;54093;50.014;19.984;2022-11-12T17:49:53;8.00;;;6.40;;
67164;SDS011;54093;50.014;19.984;2022-11-12T17:59:14;11.13;;;7.63;;
67164;SDS011;54093;50.014;19.984;2022-11-12T18:08:34;15.25;;;9.05;;
67164;SDS011;54093;50.014;19.984;2022-11-12T18:17:55;12.82;;;9.45;;
67164;SDS011;54093;50.014;19.984;2022-11-12T18:27:16;14.82;;;9.43;;
67164;SDS011;54093;50.014;19.984;2022-11-12T18:36:37;24.05;;;11.60;;
67164;SDS011;54093;50.014;19.984;2022-11-12T18:45:58;22.73;;;11.98;;
67164;SDS011;54093;50.014;19.984;2022-11-12T18:55:19;34.80;;;15.48;;
67164;SDS011;54093;50.014;19.984;2022-11-12T19:04:40;21.10;;;12.30;;
67164;SDS011;54093;50.014;19.984;2022-11-12T19:14:01;16.92;;;11.77;;
67164;SDS011;54093;50.014;19.984;2022-11-12T19:23:22;26.88;;;15.38;;
67164;SDS011;54093;50.014;19.984;2022-11-12T19:32:42;28.38;;;14.27;;
67164;SDS011;54093;50.014;19.984;2022-11-12T19:42:03;25.98;;;14.52;;
67164;SDS011;54093;50.014;19.984;2022-11-12T19:51:26;48.42;;;22.23;;
67164;SDS011;54093;50.014;19.984;2022-11-12T20:00:47;42.72;;;21.88;;
67164;SDS011;54093;50.014;19.984;2022-11-12T20:10:08;32.70;;;17.42;;
67164;SDS011;54093;50.014;19.984;2022-11-12T20:19:29;27.95;;;15.80;;
67164;SDS011;54093;50.014;19.984;2022-11-12T20:28:50;25.67;;;13.88;;
67164;SDS011;54093;50.014;19.984;2022-11-12T20:38:11;27.00;;;14.38;;
67164;SDS011;54093;50.014;19.984;2022-11-12T20:47:31;28.35;;;13.52;;
67164;SDS011;54093;50.014;19.984;2022-11-12T20:56:52;35.03;;;15.98;;
67164;SDS011;54093;50.014;19.984;2022-11-12T21:06:16;35.60;;;18.70;;
67164;SDS011;54093;50.014;19.984;2022-11-12T21:15:39;24.73;;;14.55;;
67164;SDS011;54093;50.014;19.984;2022-11-12T21:25:04;33.40;;;17.47;;
67164;SDS011;54093;50.014;19.984;2022-11-12T21:34:25;25.30;;;12.85;;
67164;SDS011;54093;50.014;19.984;2022-11-12T21:43:46;33.53;;;16.45;;
67164;SDS011;54093;50.014;19.984;2022-11-12T21:53:08;25.65;;;12.77;;
67164;SDS011;54093;50.014;19.984;2022-11-12T22:02:28;30.25;;;14.38;;
67164;SDS011;54093;50.014;19.984;2022-11-12T22:11:49;30.08;;;14.13;;
67164;SDS011;54093;50.014;19.984;2022-11-12T22:21:11;33.83;;;13.73;;
67164;SDS011;54093;50.014;19.984;2022-11-12T22:30:33;33.85;;;15.23;;
67164;SDS011;54093;50.014;19.984;2022-11-12T22:39:54;34.33;;;14.40;;
67164;SDS011;54093;50.014;19.984;2022-11-12T22:49:15;31.08;;;14.75;;
67164;SDS011;54093;50.014;19.984;2022-11-12T22:58:36;37.40;;;16.63;;
67164;SDS011;54093;50.014;19.984;2022-11-12T23:07:58;29.45;;;14.77;;
67164;SDS011;54093;50.014;19.984;2022-11-12T23:17:20;27.27;;;12.90;;
67164;SDS011;54093;50.014;19.984;2022-11-12T23:26:41;36.90;;;16.33;;
67164;SDS011;54093;50.014;19.984;2022-11-12T23:36:05;32.50;;;15.32;;
67164;SDS011;54093;50.014;19.984;2022-11-12T23:45:27;39.00;;;15.83;;
67164;SDS011;54093;50.014;19.984;2022-11-12T23:54:48;36.80;;;16.17;;
